Blue Mountain, MS (38610)

11:38 PM CST on November 28, 2014 (GMT -0600)
Northhaven | Change Station
CLOSE
Current Station
Personal Weather Station
Location: New Albany, MS
Elevation: 364 ft
Nearby Weather Stations

Elev 364 ft 34.51 °N, 89.00 °W | Updated 6 minutes ago

Clear
Clear
42.1 °F
Feels Like 42 °F
N
0.0
Wind Variable Wind from SSW

Today
High -- | Low -- °F
--% Chance of Precip.
Yesterday
High -- | Low -- °F
Precip. -- in
6:42 AM 4:45 PM
Waxing Crescent, 48% visible
Pressure 30.14 in
Visibility -9999.0 miles
Clouds Clear
Windchill 42 °F
Dew Point 31 °F
Humidity 64%
Rainfall 0.00 in
Snow Depth Not available.
UV 0 out of 12
Pollen .30 out of 12
Air Quality Not available.
Flu Activity Not available.
METAR KCRX 290515Z AUTO 18007KT CLR 06/M03 A3014 RMK AO2

More Conditions Fewer Conditions

Pressure 30.14 in
Visibility -9999.0 miles
Clouds Clear
Windchill 42 °F
Dew Point 31 °F
Humidity 64%
Rainfall 0.00 in
Snow Depth Not available.
UV 0 out of 12
Pollen .30 out of 12
Air Quality Not available.
Flu Activity Not available.
METAR KCRX 290515Z AUTO 18007KT CLR 06/M03 A3014 RMK AO2

More Conditions Fewer Conditions

10-Day Weather Forecast

Almanac

Astronomy

Nov. 28, 2014 Rise Set
Actual Time
Civil Twilight
Nautical Twilight
Astronomical Twilight
Moon
Length of Visible Light
Length of Day
Tomorrow will be .
, % of the Moon is Illuminated

Today's Extremes

State Highs State Lows

Community

WunderPhotos

Upload Photos

1,774,419 photos uploaded!

WunderBlogs® & News

Nearby

Air Quality

  Air Quality AQ Index Pollutant
Not available.

Snow Depth

Station Depth Elevation

Earthquake Activity

City Distance Mag. Time & Date
Minimum magnitude displayed is 2.5.

Coastal Water Temperatures

Place Temperature

Nearby Weather Stations